Time;durP1;ratioP1;P1;durP2;ratioP2;P2;SDS_P1;SDS_P2;PMS_P1;PMS_P2;Temp;Humidity;BMP_temperature;BMP_pressure;BME280_temperature;BME280_humidity;BME280_pressure;Samples;Min_cycle;Max_cycle;Signal;HPM_P1;HPM_P2
2022/10/18 00:02:18;;;;;;;9.77;5.50;;;;;;;16.49;100.00;101540.59;8424004;28;20508;-51
2022/10/18 00:06:19;;;;;;;13.23;5.90;;;;;;;16.47;100.00;101531.72;8424121;28;20032;-47
2022/10/18 00:10:19;;;;;;;11.23;5.90;;;;;;;16.46;100.00;101535.44;8405812;28;20033;-48
2022/10/18 00:14:21;;;;;;;12.32;5.88;;;;;;;16.45;100.00;101525.53;8391972;28;20037;-48
2022/10/18 00:18:22;;;;;;;9.68;6.03;;;;;;;16.55;100.00;101526.31;8391257;28;20452;-47
2022/10/18 00:22:24;;;;;;;10.60;6.32;;;;;;;16.60;100.00;101529.47;8391546;28;20055;-49
2022/10/18 00:26:27;;;;;;;12.70;6.40;;;;;;;16.48;100.00;101527.97;8391753;28;20033;-48
2022/10/18 00:30:28;;;;;;;10.90;6.60;;;;;;;16.37;100.00;101517.22;8411792;28;20431;-48
2022/10/18 00:34:28;;;;;;;10.38;6.30;;;;;;;16.38;100.00;101521.69;8423246;28;20044;-52
2022/10/18 00:38:29;;;;;;;11.68;6.65;;;;;;;16.28;100.00;101508.09;8423373;28;20481;-49
2022/10/18 00:42:32;;;;;;;11.65;6.53;;;;;;;16.17;100.00;101516.50;8405102;28;20044;-49
2022/10/18 00:46:35;;;;;;;9.70;6.88;;;;;;;16.22;100.00;101519.59;8422683;28;20056;-48
2022/10/18 00:50:36;;;;;;;15.15;7.45;;;;;;;16.31;100.00;101506.94;8422652;28;20032;-48
2022/10/18 00:54:40;;;;;;;12.60;7.70;;;;;;;16.41;100.00;101507.72;8422482;28;20039;-47
2022/10/18 00:58:41;;;;;;;13.57;8.13;;;;;;;16.41;100.00;101500.38;8410120;28;20030;-49
2022/10/18 01:02:44;;;;;;;15.15;7.93;;;;;;;16.44;100.00;101504.72;8419677;28;20571;-48
2022/10/18 01:07:24;;;;;;;16.10;7.50;;;;;;;16.40;100.00;101503.25;8422087;28;20334;-48
2022/10/18 01:12:05;;;;;;;16.50;9.13;;;;;;;16.27;100.00;101494.59;8397961;28;20445;-48
2022/10/18 01:16:23;;;;;;;17.40;9.95;;;;;;;16.35;100.00;101494.69;8399308;28;20090;-49
2022/10/18 01:25:11;;;;;;;19.23;9.45;;;;;;;16.42;100.00;101503.97;8460638;27;20355;-47
2022/10/18 01:29:44;;;;;;;16.55;9.00;;;;;;;16.43;100.00;101511.13;8445803;28;20031;-47
2022/10/18 01:33:49;;;;;;;20.95;8.38;;;;;;;16.38;100.00;101506.13;8414716;28;20523;-47
2022/10/18 01:37:51;;;;;;;16.08;8.15;;;;;;;16.37;100.00;101517.22;8424783;28;20032;-50
2022/10/18 01:41:53;;;;;;;22.88;9.88;;;;;;;16.45;100.00;101514.63;8419448;28;20044;-47
2022/10/18 01:45:56;;;;;;;26.15;12.73;;;;;;;16.58;100.00;101526.00;8428691;28;20040;-47
2022/10/18 01:50:03;;;;;;;32.92;15.23;;;;;;;16.64;100.00;101514.47;8420052;28;20024;-48
2022/10/18 01:54:04;;;;;;;33.25;16.17;;;;;;;16.63;100.00;101507.31;8418584;28;20040;-49
2022/10/18 01:58:23;;;;;;;30.98;15.80;;;;;;;16.68;100.00;101515.91;8422771;28;20046;-49
2022/10/18 02:02:48;;;;;;;38.97;17.15;;;;;;;16.71;100.00;101512.88;8412462;28;20417;-48
2022/10/18 02:06:57;;;;;;;43.20;17.60;;;;;;;16.76;100.00;101503.19;8418875;28;20131;-49
2022/10/18 02:11:03;;;;;;;41.42;18.10;;;;;;;16.73;100.00;101513.53;8418256;28;20097;-50
2022/10/18 02:15:06;;;;;;;37.40;18.15;;;;;;;16.68;100.00;101510.44;8409456;28;20036;-49
2022/10/18 02:19:33;;;;;;;38.42;17.60;;;;;;;16.65;100.00;101510.75;8416899;28;20466;-48
2022/10/18 02:23:35;;;;;;;42.97;18.48;;;;;;;16.72;100.00;101509.09;8406602;28;20040;-48
2022/10/18 02:27:36;;;;;;;47.35;20.98;;;;;;;16.77;100.00;101514.97;8422011;28;20494;-48
2022/10/18 02:31:47;;;;;;;46.53;21.60;;;;;;;16.80;100.00;101520.97;8449661;28;20050;-48
2022/10/18 02:35:55;;;;;;;46.25;21.00;;;;;;;16.77;100.00;101514.97;8431431;28;20044;-48
2022/10/18 02:39:56;;;;;;;46.92;20.83;;;;;;;16.80;100.00;101520.13;8409518;28;20405;-48
2022/10/18 02:43:57;;;;;;;49.88;21.60;;;;;;;16.78;100.00;101520.28;8394324;28;20063;-50
2022/10/18 02:47:58;;;;;;;51.15;21.52;;;;;;;16.85;100.00;101523.22;8395940;28;20486;-49
2022/10/18 02:51:58;;;;;;;55.20;22.33;;;;;;;16.87;100.00;101523.94;8394172;28;20033;-50
2022/10/18 02:55:59;;;;;;;59.70;22.52;;;;;;;16.85;100.00;101524.09;8392347;28;20040;-49
2022/10/18 02:59:59;;;;;;;49.80;21.10;;;;;;;16.80;100.00;101528.31;8410211;28;20123;-50
2022/10/18 03:04:00;;;;;;;51.05;20.60;;;;;;;16.73;100.00;101522.59;8422284;28;20040;-49
2022/10/18 03:08:01;;;;;;;51.55;19.88;;;;;;;16.70;100.00;101524.78;8394933;28;20117;-49
2022/10/18 03:12:02;;;;;;;56.78;20.80;;;;;;;16.76;100.00;101518.69;8394338;28;20036;-47
2022/10/18 03:16:03;;;;;;;54.67;19.73;;;;;;;16.76;100.00;101513.22;8395014;28;20029;-49
2022/10/18 03:20:04;;;;;;;55.42;19.73;;;;;;;16.72;100.00;101512.69;8394261;28;20043;-51
2022/10/18 03:24:05;;;;;;;58.55;18.95;;;;;;;16.61;100.00;101520.25;8394186;28;20032;-49
2022/10/18 03:28:06;;;;;;;51.75;20.83;;;;;;;16.65;100.00;101510.75;8400535;28;20062;-51
2022/10/18 03:32:06;;;;;;;51.92;20.27;;;;;;;16.63;100.00;101499.13;8387247;28;20490;-49
2022/10/18 03:36:07;;;;;;;60.60;21.23;;;;;;;16.61;100.00;101498.41;8392124;28;20047;-48
2022/10/18 03:40:08;;;;;;;65.00;21.42;;;;;;;16.64;100.00;101489.91;8393637;28;20044;-48
2022/10/18 03:44:09;;;;;;;57.45;20.38;;;;;;;16.62;100.00;101494.69;8394197;28;20056;-51
2022/10/18 03:48:09;;;;;;;55.50;20.98;;;;;;;16.58;100.00;101494.13;8392484;28;20510;-50
2022/10/18 03:52:10;;;;;;;59.50;19.63;;;;;;;16.57;100.00;101497.88;8393292;28;20074;-51
2022/10/18 03:56:10;;;;;;;48.03;17.67;;;;;;;16.44;100.00;101496.53;8395939;28;20088;-51
2022/10/18 04:00:12;;;;;;;55.15;18.52;;;;;;;16.45;100.00;101499.09;8409506;28;20036;-50
2022/10/18 04:04:22;;;;;;;52.03;19.67;;;;;;;16.54;100.00;101505.50;8428603;27;20394;-51
2022/10/18 04:08:23;;;;;;;64.00;20.88;;;;;;;16.60;100.00;101502.16;8418332;28;20058;-52
2022/10/18 04:12:24;;;;;;;66.50;21.70;;;;;;;16.59;100.00;101506.75;8406864;28;20040;-50
2022/10/18 04:16:24;;;;;;;67.18;21.85;;;;;;;16.59;100.00;101517.66;8417733;28;20123;-51
2022/10/18 04:20:25;;;;;;;68.47;22.90;;;;;;;16.62;100.00;101522.81;8417760;28;20110;-53
2022/10/18 04:24:26;;;;;;;66.72;20.98;;;;;;;16.62;100.00;101516.53;8419636;28;20579;-51
2022/10/18 04:28:26;;;;;;;71.00;22.60;;;;;;;16.58;100.00;101526.00;8419044;28;20500;-51
2022/10/18 04:32:28;;;;;;;70.82;21.98;;;;;;;16.63;100.00;101523.69;8413285;28;20036;-50
2022/10/18 04:36:29;;;;;;;73.13;22.17;;;;;;;16.65;100.00;101527.13;8406413;28;20505;-51
2022/10/18 04:40:30;;;;;;;69.63;21.25;;;;;;;16.65;100.00;101521.69;8417084;28;20405;-50
2022/10/18 04:44:31;;;;;;;62.42;20.63;;;;;;;16.64;100.00;101519.94;8418621;28;20033;-50
2022/10/18 04:48:31;;;;;;;68.63;20.95;;;;;;;16.67;100.00;101525.09;8417471;28;20029;-50
2022/10/18 04:52:32;;;;;;;77.00;21.40;;;;;;;16.67;100.00;101530.53;8417938;28;20409;-50
2022/10/18 04:56:32;;;;;;;72.80;21.42;;;;;;;16.68;100.00;101532.28;8417513;28;20044;-50
2022/10/18 05:00:33;;;;;;;63.17;20.60;;;;;;;16.65;100.00;101530.69;8413759;28;20501;-49
2022/10/18 05:04:34;;;;;;;62.92;19.88;;;;;;;16.64;100.00;101541.78;8416417;28;20097;-49
2022/10/18 05:08:34;;;;;;;62.75;20.10;;;;;;;16.61;100.00;101536.63;8412104;28;20040;-51
2022/10/18 05:12:35;;;;;;;62.33;19.17;;;;;;;16.66;100.00;101534.31;8410446;28;20036;-52
2022/10/18 05:16:36;;;;;;;71.65;20.27;;;;;;;16.68;100.00;101537.75;8389842;28;20082;-49
2022/10/18 05:20:36;;;;;;;68.30;20.50;;;;;;;16.66;100.00;101546.09;8394021;28;20532;-53
2022/10/18 05:24:37;;;;;;;72.78;21.95;;;;;;;16.66;100.00;101537.91;8388740;28;20418;-51
2022/10/18 05:28:38;;;;;;;68.75;21.48;;;;;;;16.65;100.00;101543.53;8389963;28;20494;-52
2022/10/18 05:32:38;;;;;;;64.10;21.25;;;;;;;16.69;100.00;101539.47;8392608;28;20044;-50
2022/10/18 05:36:39;;;;;;;33.47;13.20;;;;;;;16.58;100.00;101542.41;8390983;28;20052;-52
2022/10/18 05:40:39;;;;;;;62.97;20.58;;;;;;;16.72;100.00;101552.81;8393164;28;20041;-50
2022/10/18 05:44:40;;;;;;;67.22;20.50;;;;;;;16.75;100.00;101556.09;8384390;28;20044;-50
2022/10/18 05:48:42;;;;;;;63.55;21.67;;;;;;;16.74;100.00;101556.25;8393538;28;20085;-52
2022/10/18 05:52:43;;;;;;;57.65;21.33;;;;;;;16.75;100.00;101556.09;8393885;28;20041;-52
2022/10/18 05:56:44;;;;;;;66.10;22.75;;;;;;;16.80;100.00;101555.63;8394179;28;20120;-51
2022/10/18 06:00:44;;;;;;;69.05;21.50;;;;;;;16.80;100.00;101552.91;8392724;28;20465;-53
2022/10/18 06:04:45;;;;;;;70.18;21.40;;;;;;;16.82;100.00;101556.31;8392812;28;20040;-51
2022/10/18 06:08:48;;;;;;;71.40;22.75;;;;;;;16.81;100.00;101554.59;8393362;28;20044;-51
2022/10/18 06:12:49;;;;;;;70.88;23.23;;;;;;;16.84;100.00;101555.13;8392874;28;20119;-52
2022/10/18 06:16:49;;;;;;;72.68;23.55;;;;;;;16.85;100.00;101556.00;8393642;28;20047;-51
2022/10/18 06:20:56;;;;;;;72.32;22.83;;;;;;;16.85;100.00;101545.94;8393311;28;20051;-51
2022/10/18 06:24:57;;;;;;;66.68;24.17;;;;;;;16.89;100.00;101551.94;8381569;28;20086;-52
2022/10/18 06:28:57;;;;;;;67.38;23.55;;;;;;;16.90;100.00;101554.50;8388983;28;20033;-51
2022/10/18 06:32:59;;;;;;;72.18;25.15;;;;;;;16.91;100.00;101549.91;8393358;28;20123;-54
2022/10/18 06:37:00;;;;;;;72.80;24.58;;;;;;;16.92;100.00;101546.16;8393384;28;20090;-51
2022/10/18 06:41:02;;;;;;;68.43;23.00;;;;;;;16.93;100.00;101558.81;8392233;28;20036;-51
2022/10/18 06:45:03;;;;;;;77.30;26.00;;;;;;;16.93;100.00;101559.66;8391265;28;20571;-52
2022/10/18 06:49:03;;;;;;;65.90;24.40;;;;;;;16.95;100.00;101573.16;8392211;28;20454;-51
2022/10/18 06:53:07;;;;;;;76.28;24.92;;;;;;;16.92;100.00;101585.28;8392145;28;20040;-50
2022/10/18 06:57:08;;;;;;;69.40;22.87;;;;;;;16.95;100.00;101582.22;8391454;28;20111;-53
2022/10/18 07:01:11;;;;;;;65.63;22.60;;;;;;;16.91;100.00;101583.56;8390589;28;20040;-54
2022/10/18 07:05:12;;;;;;;68.70;23.83;;;;;;;16.95;100.00;101589.56;8391891;28;20090;-50
2022/10/18 07:09:13;;;;;;;75.50;24.95;;;;;;;16.98;100.00;101602.91;8391349;28;20047;-53
2022/10/18 07:13:13;;;;;;;75.90;25.48;;;;;;;16.99;100.00;101608.22;8391533;28;20198;-51
2022/10/18 07:17:14;;;;;;;76.97;25.35;;;;;;;17.00;100.00;101606.34;8398952;28;20090;-54
2022/10/18 07:21:18;;;;;;;79.18;27.75;;;;;;;17.02;100.00;101609.81;8423722;28;20068;-51
2022/10/18 07:25:18;;;;;;;88.53;28.77;;;;;;;17.08;100.00;101622.84;8423057;28;20115;-51
2022/10/18 07:29:19;;;;;;;95.55;30.73;;;;;;;17.13;100.00;101625.94;8416124;28;20102;-54
2022/10/18 07:33:19;;;;;;;90.78;28.10;;;;;;;17.17;100.00;101628.22;8420870;28;20033;-50
2022/10/18 07:37:20;;;;;;;114.53;32.70;;;;;;;17.18;100.00;101629.09;8423335;28;20046;-54
2022/10/18 07:41:22;;;;;;;106.68;31.10;;;;;;;17.20;100.00;101632.53;8422310;28;20464;-50
2022/10/18 07:45:22;;;;;;;117.22;31.20;;;;;;;17.19;100.00;101642.59;8423848;28;20047;-50
2022/10/18 07:49:23;;;;;;;114.60;30.65;;;;;;;17.22;100.00;101657.81;8423803;28;20043;-50
2022/10/18 07:53:24;;;;;;;114.43;31.63;;;;;;;17.21;100.00;101656.97;8405482;28;20090;-52
2022/10/18 07:57:25;;;;;;;108.90;31.25;;;;;;;17.24;100.00;101662.13;8405791;28;20497;-50
2022/10/18 08:01:25;;;;;;;115.35;32.13;;;;;;;17.26;100.00;101664.72;8423477;28;20126;-52
2022/10/18 08:05:27;;;;;;;104.72;31.17;;;;;;;17.27;100.00;101652.75;8422965;28;20036;-50
2022/10/18 08:09:28;;;;;;;107.60;32.45;;;;;;;17.21;100.00;101659.72;8423395;28;20723;-51
2022/10/18 08:13:29;;;;;;;106.85;32.28;;;;;;;17.21;100.00;101667.03;8423292;28;20440;-51
2022/10/18 08:17:30;;;;;;;103.97;34.35;;;;;;;17.15;100.00;101662.19;8404803;28;20039;-51
2022/10/18 08:21:30;;;;;;;98.65;34.47;;;;;;;17.20;100.00;101668.06;8422488;28;20032;-53
2022/10/18 08:25:31;;;;;;;120.35;36.95;;;;;;;17.27;100.00;101666.41;8420263;28;20024;-50
2022/10/18 08:29:33;;;;;;;124.38;39.42;;;;;;;17.23;100.00;101670.50;8402923;28;20036;-50
2022/10/18 08:33:35;;;;;;;122.43;37.40;;;;;;;17.21;100.00;101683.44;8421566;28;20573;-53
2022/10/18 08:37:35;;;;;;;124.25;38.17;;;;;;;17.24;100.00;101683.13;8421718;28;20036;-50
2022/10/18 08:45:50;;;;;;;130.35;39.42;;;;;;;17.29;100.00;101697.19;8308282;27;20357;-50
2022/10/18 08:49:55;;;;;;;139.57;39.25;;;;;;;17.33;100.00;101698.59;8311974;28;20030;-49
2022/10/18 08:54:05;;;;;;;120.90;39.22;;;;;;;17.34;100.00;101703.06;8319026;28;20666;-51
2022/10/18 08:58:29;;;;;;;145.35;40.67;;;;;;;17.26;100.00;101711.19;8318919;28;20042;-52
2022/10/18 09:03:10;;;;;;;142.30;42.70;;;;;;;17.29;100.00;101705.38;8317511;28;20570;-49
2022/10/18 09:16:19;;;;;;;129.73;42.45;;;;;;;17.37;100.00;101705.47;8442366;27;20533;-48
2022/10/18 09:20:24;;;;;;;134.98;42.38;;;;;;;17.40;100.00;101706.03;8418469;28;20434;-50
2022/10/18 09:24:39;;;;;;;130.20;44.85;;;;;;;17.48;100.00;101713.50;8409030;28;20522;-51
2022/10/18 09:29:07;;;;;;;131.05;44.83;;;;;;;17.54;100.00;101718.34;8416229;28;20048;-50
2022/10/18 09:33:25;;;;;;;150.02;45.53;;;;;;;17.59;100.00;101726.91;8405156;28;20086;-47
2022/10/18 09:37:29;;;;;;;131.90;45.75;;;;;;;17.49;100.00;101720.66;8417163;28;20045;-47
2022/10/18 09:41:52;;;;;;;142.40;46.27;;;;;;;17.58;100.00;101736.16;8413462;27;20055;-48
2022/10/18 09:45:54;;;;;;;150.30;45.20;;;;;;;17.69;100.00;101733.19;8414442;28;20101;-47
2022/10/18 09:50:01;;;;;;;142.68;47.00;;;;;;;17.74;100.00;101736.28;8415222;28;20040;-48
2022/10/18 09:54:26;;;;;;;142.77;47.65;;;;;;;17.91;100.00;101743.66;8397333;28;20456;-47
2022/10/18 09:58:41;;;;;;;152.00;47.63;;;;;;;18.03;100.00;101742.38;8410714;28;20048;-47
2022/10/18 10:02:42;;;;;;;129.10;44.08;;;;;;;17.92;100.00;101739.88;8417212;28;20039;-47
2022/10/18 10:06:50;;;;;;;125.95;42.95;;;;;;;18.07;100.00;101749.25;8416894;28;20123;-48
2022/10/18 10:10:51;;;;;;;116.07;41.05;;;;;;;18.23;100.00;101743.88;8413093;28;20480;-49
2022/10/18 10:14:51;;;;;;;121.53;44.05;;;;;;;18.37;100.00;101746.09;8448951;28;20047;-47
2022/10/18 10:18:53;;;;;;;112.63;43.70;;;;;;;18.30;100.00;101761.38;8450595;28;20100;-47
2022/10/18 10:23:03;;;;;;;113.68;44.08;;;;;;;18.22;100.00;101763.22;8450459;28;20067;-48
2022/10/18 10:27:12;;;;;;;125.18;43.15;;;;;;;18.27;100.00;101763.59;8399213;28;20040;-47
2022/10/18 10:31:30;;;;;;;128.57;47.13;;;;;;;18.30;100.00;101768.75;8420999;28;20043;-48
2022/10/18 10:35:34;;;;;;;131.23;45.85;;;;;;;18.34;100.00;101773.75;8423089;28;20093;-49
2022/10/18 10:39:35;;;;;;;123.63;46.47;;;;;;;18.41;100.00;101779.47;8426248;28;20044;-49
2022/10/18 10:43:37;;;;;;;132.95;51.38;;;;;;;18.45;100.00;101770.78;8426847;28;20043;-48
2022/10/18 10:47:38;;;;;;;131.05;48.83;;;;;;;18.65;100.00;101772.28;8427342;28;20117;-48
2022/10/18 10:51:39;;;;;;;122.95;47.38;;;;;;;18.65;100.00;101772.28;8425239;28;20136;-48
2022/10/18 10:55:39;;;;;;;122.78;47.30;;;;;;;18.64;100.00;101770.59;8426972;28;20513;-49
2022/10/18 10:59:45;;;;;;;130.38;48.58;;;;;;;18.61;100.00;101770.91;8411136;28;20458;-50
2022/10/18 11:03:47;;;;;;;137.05;49.10;;;;;;;18.80;100.00;101784.38;8424439;28;20086;-48
2022/10/18 11:07:54;;;;;;;137.57;51.22;;;;;;;18.69;100.00;101772.81;8424093;28;20123;-48
2022/10/18 11:12:05;;;;;;;141.23;50.97;;;;;;;18.86;100.00;101785.59;8425190;28;20050;-49
2022/10/18 11:16:13;;;;;;;134.10;48.95;;;;;;;19.31;100.00;101787.00;8426135;28;20128;-48
2022/10/18 11:20:26;;;;;;;130.70;50.63;;;;;;;19.94;100.00;101776.34;8426383;28;20054;-48
2022/10/18 11:24:28;;;;;;;103.88;45.63;;;;;;;21.68;100.00;101768.84;8421262;28;20051;-51
2022/10/18 11:28:54;;;;;;;85.07;40.88;;;;;;;22.40;95.60;101773.81;8421494;28;20126;-48
2022/10/18 11:37:53;;;;;;;74.93;34.53;;;;;;;25.74;81.04;101765.97;8456191;27;20471;-48
2022/10/18 11:42:06;;;;;;;76.93;33.13;;;;;;;25.28;79.44;101764.09;8414487;28;20515;-48
2022/10/18 11:46:19;;;;;;;56.20;29.23;;;;;;;25.79;77.99;101757.88;8412657;28;20286;-48
2022/10/18 11:55:18;;;;;;;44.22;22.83;;;;;;;24.07;80.79;101758.09;8436195;27;20126;-47
2022/10/18 11:59:58;;;;;;;47.55;24.88;;;;;;;22.41;90.18;101756.22;8406965;28;20114;-47
2022/10/18 12:04:22;;;;;;;49.13;24.90;;;;;;;20.45;100.00;101755.94;8396320;28;20079;-47
2022/10/18 12:08:44;;;;;;;53.13;27.38;;;;;;;20.03;100.00;101744.28;8407079;28;20041;-47
2022/10/18 12:12:52;;;;;;;60.15;28.77;;;;;;;19.93;100.00;101743.56;8407631;28;20036;-47
2022/10/18 12:16:57;;;;;;;59.08;27.13;;;;;;;19.85;100.00;101741.69;8414439;28;20536;-48
2022/10/18 12:21:00;;;;;;;50.28;26.83;;;;;;;21.01;100.00;101736.53;8402696;28;20033;-50
2022/10/18 12:25:01;;;;;;;50.55;25.40;;;;;;;21.54;95.90;101733.00;8416450;28;20397;-48
2022/10/18 12:33:36;;;;;;;50.95;24.27;;;;;;;20.33;100.00;101736.22;8460514;27;20120;-47
2022/10/18 12:38:10;;;;;;;49.47;25.55;;;;;;;19.57;100.00;101731.22;8433070;28;20044;-47
2022/10/18 12:42:29;;;;;;;53.22;25.75;;;;;;;19.42;100.00;101729.13;8412448;28;20387;-47
2022/10/18 12:46:50;;;;;;;51.00;24.55;;;;;;;19.91;100.00;101729.19;8411029;28;20102;-50
2022/10/18 12:50:59;;;;;;;44.67;23.30;;;;;;;20.05;100.00;101742.19;8426451;28;20036;-48
2022/10/18 12:55:06;;;;;;;41.88;21.83;;;;;;;20.57;100.00;101738.03;8441243;28;20036;-49
2022/10/18 13:07:41;;;;;;;41.13;20.67;;;;;;;20.53;99.49;101742.19;8459760;27;20536;-49
2022/10/18 13:11:42;;;;;;;39.08;21.25;;;;;;;20.28;99.22;101732.28;8433620;28;20036;-48
2022/10/18 13:15:51;;;;;;;43.03;21.38;;;;;;;20.00;100.00;101729.00;8418684;28;20089;-48
2022/10/18 13:20:15;;;;;;;40.58;19.48;;;;;;;20.14;100.00;101727.47;8424543;28;20070;-48
2022/10/18 13:24:25;;;;;;;39.55;21.15;;;;;;;19.98;100.00;101730.19;8412483;28;20032;-49
2022/10/18 13:28:44;;;;;;;39.70;20.58;;;;;;;19.96;100.00;101729.50;8426298;28;20035;-48
2022/10/18 13:33:26;;;;;;;35.50;19.45;;;;;;;20.08;99.09;101728.13;8445758;28;20100;-49
2022/10/18 13:37:29;;;;;;;33.65;16.95;;;;;;;20.05;97.74;101731.22;8415823;28;20056;-48
2022/10/18 13:41:51;;;;;;;36.78;18.63;;;;;;;20.14;97.83;101730.22;8411654;28;20520;-47
2022/10/18 13:45:54;;;;;;;35.10;18.95;;;;;;;20.16;97.92;101734.50;8414271;28;20129;-50
2022/10/18 13:50:21;;;;;;;34.33;16.73;;;;;;;20.17;96.65;101735.38;8416057;28;20133;-48
2022/10/18 13:55:02;;;;;;;29.88;14.75;;;;;;;19.87;94.88;101728.66;8414649;28;20123;-49
2022/10/18 13:59:31;;;;;;;25.75;14.13;;;;;;;19.79;95.30;101747.84;8430700;28;20501;-49
2022/10/18 14:34:48;;;;;;;25.10;13.40;;;;;;;18.88;96.92;101746.03;8399905;28;20556;-49
2022/10/18 14:38:55;;;;;;;27.45;11.90;;;;;;;18.87;97.68;101744.31;8409224;28;20044;-50
2022/10/18 14:42:55;;;;;;;22.88;11.65;;;;;;;18.91;96.03;101751.19;8410597;28;20101;-48
2022/10/18 14:47:12;;;;;;;20.02;10.70;;;;;;;18.99;95.42;101748.47;8411818;28;20040;-48
2022/10/18 14:51:13;;;;;;;21.13;11.60;;;;;;;19.13;94.55;101747.84;8420347;28;20036;-50
2022/10/18 14:55:22;;;;;;;21.85;11.80;;;;;;;19.24;94.79;101744.81;8414609;28;20060;-49
2022/10/18 14:59:26;;;;;;;21.05;11.95;;;;;;;19.21;95.28;101741.53;8414180;28;20510;-51
2022/10/18 15:03:33;;;;;;;22.65;12.55;;;;;;;19.14;94.79;101745.97;8408902;28;20401;-48
2022/10/18 15:07:34;;;;;;;29.15;12.05;;;;;;;19.05;95.89;101742.34;8405344;28;20516;-51
2022/10/18 15:11:35;;;;;;;23.20;12.52;;;;;;;19.10;97.32;101753.69;8424935;28;20043;-48
2022/10/18 15:15:37;;;;;;;26.85;14.10;;;;;;;19.21;99.12;101750.63;8436801;28;20036;-48
2022/10/18 15:19:38;;;;;;;30.38;15.25;;;;;;;19.17;100.00;101751.97;8404539;28;20044;-51
2022/10/18 15:23:38;;;;;;;29.83;14.85;;;;;;;19.12;100.00;101742.53;8420264;28;20544;-48
2022/10/18 15:27:43;;;;;;;33.20;15.15;;;;;;;18.95;100.00;101743.50;8422189;28;20070;-48
2022/10/18 15:31:46;;;;;;;34.20;14.88;;;;;;;18.71;100.00;101749.72;8412455;28;20098;-49
2022/10/18 15:35:47;;;;;;;34.55;16.45;;;;;;;18.48;100.00;101743.06;8404840;28;20069;-51
2022/10/18 15:39:48;;;;;;;40.17;16.27;;;;;;;18.31;100.00;101746.69;8413478;28;20504;-48
2022/10/18 15:43:49;;;;;;;32.83;15.25;;;;;;;18.26;100.00;101753.66;8417475;28;20569;-47
2022/10/18 15:52:40;;;;;;;35.35;15.02;;;;;;;18.04;100.00;101755.03;8454938;27;20383;-48
2022/10/18 15:56:42;;;;;;;40.65;16.00;;;;;;;17.97;100.00;101747.63;8445974;28;20067;-48
2022/10/18 16:00:44;;;;;;;35.65;14.73;;;;;;;17.90;100.00;101750.13;8418866;28;20510;-49
2022/10/18 16:04:46;;;;;;;37.80;14.55;;;;;;;17.84;100.00;101750.75;8429630;28;20039;-49
2022/10/18 16:08:51;;;;;;;34.33;14.73;;;;;;;17.74;100.00;101749.97;8434417;28;20032;-49
2022/10/18 16:12:52;;;;;;;35.58;14.35;;;;;;;17.69;100.00;101752.34;8412102;28;20135;-48
2022/10/18 16:16:55;;;;;;;28.30;13.57;;;;;;;17.59;100.00;101741.47;8414218;28;20044;-49
2022/10/18 16:20:55;;;;;;;26.15;12.77;;;;;;;17.50;100.00;101741.53;8431721;28;20058;-49
2022/10/18 16:24:56;;;;;;;25.25;12.73;;;;;;;17.38;100.00;101760.00;8427910;28;20116;-48
2022/10/18 16:28:57;;;;;;;29.00;12.35;;;;;;;17.28;100.00;101761.06;8422418;28;20039;-50
2022/10/18 16:32:58;;;;;;;32.70;13.25;;;;;;;17.14;100.00;101753.41;8413273;28;20044;-48
2022/10/18 16:36:59;;;;;;;26.05;11.73;;;;;;;16.88;100.00;101750.53;8407017;28;20048;-50
2022/10/18 16:41:01;;;;;;;28.55;13.20;;;;;;;16.75;100.00;101754.59;8405222;28;20032;-49
2022/10/18 16:45:02;;;;;;;31.17;11.52;;;;;;;16.57;100.00;101765.47;8407673;28;20032;-53
2022/10/18 16:49:04;;;;;;;34.05;12.60;;;;;;;16.35;100.00;101770.38;8413468;28;20043;-49
2022/10/18 16:53:05;;;;;;;29.85;13.20;;;;;;;15.95;100.00;101780.63;8413825;28;20052;-49
2022/10/18 16:57:05;;;;;;;36.45;14.77;;;;;;;16.08;100.00;101783.91;8429776;28;20032;-51
2022/10/18 17:01:10;;;;;;;33.15;14.10;;;;;;;15.93;100.00;101797.13;8401774;28;20123;-49
2022/10/18 17:05:11;;;;;;;28.35;13.13;;;;;;;15.43;100.00;101792.75;8379363;28;20032;-50
2022/10/18 17:09:14;;;;;;;36.70;15.40;;;;;;;15.63;100.00;101795.41;8394601;28;20700;-59
2022/10/18 17:13:15;;;;;;;36.47;13.95;;;;;;;15.40;100.00;101798.53;8389700;28;20040;-49
2022/10/18 17:17:16;;;;;;;39.35;13.25;;;;;;;15.15;100.00;101802.56;8389723;28;20127;-52
2022/10/18 17:21:17;;;;;;;36.55;13.45;;;;;;;15.33;100.00;101805.47;8388413;28;20067;-50
2022/10/18 17:25:19;;;;;;;38.67;14.20;;;;;;;15.27;100.00;101806.91;8389687;28;20033;-50
2022/10/18 17:29:19;;;;;;;39.20;14.60;;;;;;;15.12;100.00;101805.56;8397556;28;20378;-51
2022/10/18 17:33:20;;;;;;;51.35;15.88;;;;;;;15.17;100.00;101816.94;8363183;28;20041;-50
2022/10/18 17:37:20;;;;;;;32.28;14.65;;;;;;;15.39;100.00;101814.00;8398950;28;20039;-52
2022/10/18 17:41:21;;;;;;;35.90;14.38;;;;;;;14.85;100.00;101813.50;8388348;28;20033;-49
2022/10/18 17:45:22;;;;;;;41.05;15.18;;;;;;;14.85;100.00;101813.50;8379526;28;20083;-50
2022/10/18 17:49:23;;;;;;;46.47;16.05;;;;;;;14.83;100.00;101814.63;8388867;28;20037;-49
2022/10/18 17:53:27;;;;;;;36.38;15.27;;;;;;;14.60;100.00;101819.38;8386560;28;20446;-53
2022/10/18 17:57:28;;;;;;;36.87;13.53;;;;;;;14.17;100.00;101824.06;8387055;28;20125;-51
2022/10/18 18:01:29;;;;;;;34.22;15.10;;;;;;;14.45;100.00;101830.78;8380117;28;20178;-51
2022/10/18 18:05:32;;;;;;;35.30;15.05;;;;;;;14.42;100.00;101837.31;8386545;28;20036;-49
2022/10/18 18:09:32;;;;;;;41.30;14.70;;;;;;;14.23;100.00;101837.19;8388899;28;20064;-50
2022/10/18 18:13:33;;;;;;;38.10;14.57;;;;;;;14.19;100.00;101824.81;8385467;28;20041;-50
2022/10/18 18:17:33;;;;;;;37.58;16.73;;;;;;;14.28;100.00;101818.63;8382916;28;20044;-51
2022/10/18 18:21:34;;;;;;;46.63;17.17;;;;;;;14.34;100.00;101828.97;8381966;28;20035;-50
2022/10/18 18:25:35;;;;;;;40.20;15.10;;;;;;;14.33;100.00;101827.22;8384682;28;20036;-52
2022/10/18 18:29:35;;;;;;;36.83;14.93;;;;;;;14.04;100.00;101833.41;8377616;28;20127;-50
2022/10/18 18:33:36;;;;;;;37.85;14.70;;;;;;;13.88;100.00;101831.16;8385253;28;20045;-50
2022/10/18 18:37:37;;;;;;;45.72;14.73;;;;;;;13.94;100.00;101830.63;8385566;28;20154;-49
2022/10/18 18:41:37;;;;;;;37.97;14.43;;;;;;;13.74;100.00;101826.00;8384927;28;20912;-50
2022/10/18 18:45:38;;;;;;;41.95;14.63;;;;;;;13.54;100.00;101834.94;8374335;28;20524;-50
2022/10/18 18:49:38;;;;;;;29.92;13.45;;;;;;;13.45;100.00;101827.59;8378516;28;20056;-50
2022/10/18 18:53:41;;;;;;;28.77;12.32;;;;;;;13.54;100.00;101821.34;8375345;28;20525;-50
2022/10/18 18:57:41;;;;;;;39.70;14.20;;;;;;;13.44;100.00;101825.84;8380762;28;20449;-52
2022/10/18 19:02:14;;;;;;;28.73;14.30;;;;;;;13.55;100.00;101826.66;8367724;28;20052;-50
2022/10/18 19:06:18;;;;;;;28.67;13.97;;;;;;;13.47;100.00;101817.44;8383089;28;20040;-51
2022/10/18 19:10:18;;;;;;;25.60;13.55;;;;;;;13.14;100.00;101823.78;8383983;28;20040;-49
2022/10/18 19:14:20;;;;;;;28.40;13.57;;;;;;;13.15;100.00;101825.50;8384870;28;20052;-49
2022/10/18 19:18:21;;;;;;;34.22;14.30;;;;;;;13.08;100.00;101820.69;8378447;28;20106;-49
2022/10/18 19:22:22;;;;;;;32.08;14.30;;;;;;;13.38;100.00;101827.22;8381068;28;20144;-49
2022/10/18 19:26:52;;;;;;;31.13;13.88;;;;;;;13.43;100.00;101824.13;8383316;28;20067;-49
2022/10/18 19:30:54;;;;;;;46.63;14.27;;;;;;;13.29;100.00;101832.53;8381528;28;20052;-50
2022/10/18 19:34:55;;;;;;;26.65;13.73;;;;;;;13.08;100.00;101826.13;8375837;28;20040;-49
2022/10/18 19:38:56;;;;;;;34.97;13.50;;;;;;;12.77;100.00;101826.84;8378746;28;20043;-50